Al Cenac — WDD5445 — position and weather

sailwx.info

Track history (hours):
 
Tides and Currents Weather Stations Pressure Air Temp Water Temp Dewpoint Dewpoint Depression Visibility Wind Speed Wind Dir Waves Ship Positions

Al Cenac

Owner: Caillou Island Towing Co, Inc., Houma, LA. More information available from US FCC via Universal Licensing System and Coast Guard Vessel Documentation Center.

Last reported at 2016-May-30 17:20 UTC. Time now 2016-May-30 22:20 UTC.
Position N 40°38' W 074°10'.

; draft 10 m.

Type: Tug. MMSI: 367158530.

Date/timePositionNaut miles runAvg speedWind from/ knotsBaromVisibWave heightAir tempDewpointWater temp
2016-May-30 17:20N 40°38' W 074°10'0 0.0
2016-May-30 16:15N 40°38' W 074°10'0 0.5
2016-May-30 15:33N 40°38' W 074°09'4 4.4
2016-May-30 14:33N 40°38' W 074°04'0 0.0
2016-May-30 13:33N 40°38' W 074°04'0 0.0
2016-May-30 12:33N 40°38' W 074°04'0 0.2
2016-May-30 11:33N 40°38' W 074°04'2 2.1
2016-May-30 10:33N 40°39' W 074°02'4 4.5
2016-May-30 09:33N 40°43' W 073°58'7 0.2
2016-May-29 03:32N 40°48' W 073°51'7 6.9
2016-May-29 02:31N 40°43' W 073°58'4 4.6
2016-May-29 01:33N 40°40' W 074°02'0 0.0
2016-May-29 00:33N 40°40' W 074°02'0 0.0
2016-May-28 23:33N 40°40' W 074°02'0 0.0
2016-May-28 22:33N 40°40' W 074°02'0 0.0
2016-May-28 21:33N 40°40' W 074°02'4 4.2
2016-May-28 20:33N 40°39' W 074°07'4 1.1
2016-May-28 17:13N 40°38' W 074°12'2 1.0
2016-May-28 15:31N 40°38' W 074°10'0 0.0
2016-May-28 14:25N 40°38' W 074°10'0 0.0
2016-May-28 13:29N 40°38' W 074°10'0 0.0
2016-May-28 12:33N 40°38' W 074°10'0 0.0
2016-May-28 11:33N 40°38' W 074°10'0 0.0
2016-May-28 10:20N 40°38' W 074°10'0 0.0
2016-May-28 03:13N 40°38' W 074°10'0 0.0
2016-May-28 01:33N 40°38' W 074°10'0 0.0
2016-May-27 23:27N 40°38' W 074°10'0 0.0
2016-May-27 22:33N 40°38' W 074°10'0 0.0
2016-May-27 14:29N 40°38' W 074°10'0 0.0
2016-May-27 13:30N 40°38' W 074°10'0 0.0
2016-May-27 12:27N 40°38' W 074°10'0 0.0
2016-May-27 11:33N 40°38' W 074°10'0 0.0
2016-May-27 10:06N 40°38' W 074°10'0 0.0
2016-May-27 00:25N 40°38' W 074°10'0 0.0
2016-May-26 22:19N 40°38' W 074°10'0 0.0
2016-May-26 17:06N 40°38' W 074°10'0 0.1
2016-May-26 16:33N 40°39' W 074°10'0 0.0
2016-May-26 15:06N 40°39' W 074°10'0 0.0
2016-May-26 14:33N 40°39' W 074°10'0 0.0
2016-May-26 13:33N 40°39' W 074°10'0 0.0
2016-May-26 10:25N 40°39' W 074°10'0 0.1
2016-May-26 09:33N 40°39' W 074°10'0 0.0
2016-May-26 08:33N 40°39' W 074°10'0 0.0
2016-May-26 07:33N 40°39' W 074°10'0 0.0
2016-May-26 06:33N 40°39' W 074°10'0 0.0
2016-May-26 05:33N 40°39' W 074°10'0 0.0
2016-May-26 04:33N 40°39' W 074°10'0 0.0
2016-May-26 03:32N 40°39' W 074°10'0 0.0
2016-May-26 02:32N 40°39' W 074°10'0 0.0
2016-May-26 01:32N 40°39' W 074°10'0 0.0
2016-May-26 00:29N 40°39' W 074°10'0 0.0
2016-May-25 23:33N 40°39' W 074°10'0 0.0
2016-May-25 19:29N 40°39' W 074°10'0 0.0
2016-May-25 18:29N 40°39' W 074°10'0 0.4
2016-May-25 17:31N 40°38' W 074°09'4 4.3
2016-May-25 16:33N 40°39' W 074°04'1 0.6
2016-May-25 15:32N 40°39' W 074°05'3 3.2
2016-May-25 14:33N 40°39' W 074°09'8 7.6
2016-May-25 13:33N 40°43' W 074°01'2 1.5
2016-May-25 12:33N 40°45' W 074°01'1 0.8
2016-May-25 11:33N 40°44' W 074°01'6 5.6
2016-May-25 10:31N 40°39' W 074°05'5 4.4
2016-May-25 09:23N 40°44' W 074°06'2 2.1
2016-May-25 08:31N 40°42' W 074°07'4 0.9
2016-May-25 04:33N 40°39' W 074°06'4 3.1
2016-May-25 03:23N 40°39' W 074°11'3 2.5
2016-May-25 02:21N 40°36' W 074°12'2 2.2
2016-May-25 01:29N 40°38' W 074°12'2 0.8
2016-May-24 23:26N 40°38' W 074°10'0 0.0
2016-May-24 20:29N 40°38' W 074°10'0 0.0
2016-May-24 18:28N 40°38' W 074°10'1 0.5
2016-May-24 16:24N 40°39' W 074°11'1 0.1
2016-May-24 06:33N 40°39' W 074°10'6 6.0
2016-May-24 05:32N 40°44' W 074°06'5 0.2
2016-May-23 03:33N 40°39' W 074°05'1 1.2
2016-May-23 02:34N 40°39' W 074°04'5 4.8
2016-May-23 01:33N 40°42' W 073°59'3 2.5
2016-May-23 00:28N 40°44' W 073°56'0 0.0
2016-May-22 21:33N 40°44' W 073°57'1 1.2
2016-May-22 20:20N 40°43' W 073°58'4 5.3
2016-May-22 19:33N 40°40' W 074°02'7 6.6
2016-May-22 18:28N 40°39' W 074°11'1 0.2
2016-May-22 12:08N 40°38' W 074°12'2 0.1
2016-May-21 16:32N 40°39' W 074°10'8 8.1
2016-May-21 15:33N 40°42' W 074°00'7 2.7
2016-May-21 13:06N 40°47' W 073°55'610.6
2016-May-21 12:33N 40°42' W 073°60'9 8.2
2016-May-21 11:29N 40°39' W 074°10'0 0.0
2016-May-21 10:16N 40°39' W 074°10'0 0.0
2016-May-21 09:33N 40°39' W 074°10'0 0.1
2016-May-21 03:33N 40°38' W 074°10'7 7.4
2016-May-21 02:33N 40°41' W 074°01'2 1.8
2016-May-21 01:33N 40°42' W 073°58'0 0.1
2016-May-21 00:33N 40°42' W 073°58'0 0.0
2016-May-20 23:33N 40°42' W 073°58'0 0.0
2016-May-20 22:33N 40°42' W 073°58'0 0.0
2016-May-20 21:33N 40°42' W 073°58'0 0.1
2016-May-20 20:33N 40°42' W 073°58'0 0.0
2016-May-20 19:33N 40°42' W 073°58'1 1.0
2016-May-20 18:33N 40°42' W 073°60'7 7.0
2016-May-20 17:32N 40°39' W 074°08'  
Track history (hours):
 
Tides and Currents Weather Stations Pressure Air Temp Water Temp Dewpoint Dewpoint Depression Visibility Wind Speed Wind Dir Waves Ship Positions

Al Cenac

Owner: Caillou Island Towing Co, Inc., Houma, LA. More information available from US FCC via Universal Licensing System and Coast Guard Vessel Documentation Center.

Last reported at 2016-May-30 17:20 UTC. Time now 2016-May-30 22:20 UTC.
Position N 40°38' W 074°10'.

; draft 10 m.

Type: Tug. MMSI: 367158530.

Date/timePositionNaut miles runAvg speedWind from/ knotsBaromVisibWave heightAir tempDewpointWater temp
2016-May-30 17:20N 40°38' W 074°10'0 0.0
2016-May-30 16:15N 40°38' W 074°10'0 0.5
2016-May-30 15:33N 40°38' W 074°09'4 4.4
2016-May-30 14:33N 40°38' W 074°04'0 0.0
2016-May-30 13:33N 40°38' W 074°04'0 0.0
2016-May-30 12:33N 40°38' W 074°04'0 0.2
2016-May-30 11:33N 40°38' W 074°04'2 2.1
2016-May-30 10:33N 40°39' W 074°02'4 4.5
2016-May-30 09:33N 40°43' W 073°58'7 0.2
2016-May-29 03:32N 40°48' W 073°51'7 6.9
2016-May-29 02:31N 40°43' W 073°58'4 4.6
2016-May-29 01:33N 40°40' W 074°02'0 0.0
2016-May-29 00:33N 40°40' W 074°02'0 0.0
2016-May-28 23:33N 40°40' W 074°02'0 0.0
2016-May-28 22:33N 40°40' W 074°02'0 0.0
2016-May-28 21:33N 40°40' W 074°02'4 4.2
2016-May-28 20:33N 40°39' W 074°07'4 1.1
2016-May-28 17:13N 40°38' W 074°12'2 1.0
2016-May-28 15:31N 40°38' W 074°10'0 0.0
2016-May-28 14:25N 40°38' W 074°10'0 0.0
2016-May-28 13:29N 40°38' W 074°10'0 0.0
2016-May-28 12:33N 40°38' W 074°10'0 0.0
2016-May-28 11:33N 40°38' W 074°10'0 0.0
2016-May-28 10:20N 40°38' W 074°10'0 0.0
2016-May-28 03:13N 40°38' W 074°10'0 0.0
2016-May-28 01:33N 40°38' W 074°10'0 0.0
2016-May-27 23:27N 40°38' W 074°10'0 0.0
2016-May-27 22:33N 40°38' W 074°10'0 0.0
2016-May-27 14:29N 40°38' W 074°10'0 0.0
2016-May-27 13:30N 40°38' W 074°10'0 0.0
2016-May-27 12:27N 40°38' W 074°10'0 0.0
2016-May-27 11:33N 40°38' W 074°10'0 0.0
2016-May-27 10:06N 40°38' W 074°10'0 0.0
2016-May-27 00:25N 40°38' W 074°10'0 0.0
2016-May-26 22:19N 40°38' W 074°10'0 0.0
2016-May-26 17:06N 40°38' W 074°10'0 0.1
2016-May-26 16:33N 40°39' W 074°10'0 0.0
2016-May-26 15:06N 40°39' W 074°10'0 0.0
2016-May-26 14:33N 40°39' W 074°10'0 0.0
2016-May-26 13:33N 40°39' W 074°10'0 0.0
2016-May-26 10:25N 40°39' W 074°10'0 0.1
2016-May-26 09:33N 40°39' W 074°10'0 0.0
2016-May-26 08:33N 40°39' W 074°10'0 0.0
2016-May-26 07:33N 40°39' W 074°10'0 0.0
2016-May-26 06:33N 40°39' W 074°10'0 0.0
2016-May-26 05:33N 40°39' W 074°10'0 0.0
2016-May-26 04:33N 40°39' W 074°10'0 0.0
2016-May-26 03:32N 40°39' W 074°10'0 0.0
2016-May-26 02:32N 40°39' W 074°10'0 0.0
2016-May-26 01:32N 40°39' W 074°10'0 0.0
2016-May-26 00:29N 40°39' W 074°10'0 0.0
2016-May-25 23:33N 40°39' W 074°10'0 0.0
2016-May-25 19:29N 40°39' W 074°10'0 0.0
2016-May-25 18:29N 40°39' W 074°10'0 0.4
2016-May-25 17:31N 40°38' W 074°09'4 4.3
2016-May-25 16:33N 40°39' W 074°04'1 0.6
2016-May-25 15:32N 40°39' W 074°05'3 3.2
2016-May-25 14:33N 40°39' W 074°09'8 7.6
2016-May-25 13:33N 40°43' W 074°01'2 1.5
2016-May-25 12:33N 40°45' W 074°01'1 0.8
2016-May-25 11:33N 40°44' W 074°01'6 5.6
2016-May-25 10:31N 40°39' W 074°05'5 4.4
2016-May-25 09:23N 40°44' W 074°06'2 2.1
2016-May-25 08:31N 40°42' W 074°07'4 0.9
2016-May-25 04:33N 40°39' W 074°06'4 3.1
2016-May-25 03:23N 40°39' W 074°11'3 2.5
2016-May-25 02:21N 40°36' W 074°12'2 2.2
2016-May-25 01:29N 40°38' W 074°12'2 0.8
2016-May-24 23:26N 40°38' W 074°10'0 0.0
2016-May-24 20:29N 40°38' W 074°10'0 0.0
2016-May-24 18:28N 40°38' W 074°10'1 0.5
2016-May-24 16:24N 40°39' W 074°11'1 0.1
2016-May-24 06:33N 40°39' W 074°10'6 6.0
2016-May-24 05:32N 40°44' W 074°06'5 0.2
2016-May-23 03:33N 40°39' W 074°05'1 1.2
2016-May-23 02:34N 40°39' W 074°04'5 4.8
2016-May-23 01:33N 40°42' W 073°59'3 2.5
2016-May-23 00:28N 40°44' W 073°56'0 0.0
2016-May-22 21:33N 40°44' W 073°57'1 1.2
2016-May-22 20:20N 40°43' W 073°58'4 5.3
2016-May-22 19:33N 40°40' W 074°02'7 6.6
2016-May-22 18:28N 40°39' W 074°11'1 0.2
2016-May-22 12:08N 40°38' W 074°12'2 0.1
2016-May-21 16:32N 40°39' W 074°10'8 8.1
2016-May-21 15:33N 40°42' W 074°00'7 2.7
2016-May-21 13:06N 40°47' W 073°55'610.6
2016-May-21 12:33N 40°42' W 073°60'9 8.2
2016-May-21 11:29N 40°39' W 074°10'0 0.0
2016-May-21 10:16N 40°39' W 074°10'0 0.0
2016-May-21 09:33N 40°39' W 074°10'0 0.1
2016-May-21 03:33N 40°38' W 074°10'7 7.4
2016-May-21 02:33N 40°41' W 074°01'2 1.8
2016-May-21 01:33N 40°42' W 073°58'0 0.1
2016-May-21 00:33N 40°42' W 073°58'0 0.0
2016-May-20 23:33N 40°42' W 073°58'0 0.0
2016-May-20 22:33N 40°42' W 073°58'0 0.0
2016-May-20 21:33N 40°42' W 073°58'0 0.1
2016-May-20 20:33N 40°42' W 073°58'0 0.0
2016-May-20 19:33N 40°42' W 073°58'1 1.0
2016-May-20 18:33N 40°42' W 073°60'7 7.0
2016-May-20 17:32N 40°39' W 074°08'  

Dump ship's entire track history